Time;durP1;ratioP1;P1;durP2;ratioP2;P2;SDS_P1;SDS_P2;PMS_P1;PMS_P2;Temp;Humidity;BMP_temperature;BMP_pressure;BME280_temperature;BME280_humidity;BME280_pressure;Samples;Min_cycle;Max_cycle;Signal;HPM_P1;HPM_P2
2023/12/07 00:01:02;;;;;;;20.43;14.33;;;2.00;82.60;;;;;;5043991;28;20080;-72
2023/12/07 00:03:28;;;;;;;22.23;14.40;;;2.00;82.70;;;;;;5044288;28;20106;-72
2023/12/07 00:05:53;;;;;;;19.13;14.77;;;2.00;82.70;;;;;;5042536;28;20045;-72
2023/12/07 00:08:19;;;;;;;23.67;15.47;;;2.00;82.70;;;;;;5043539;28;20526;-72
2023/12/07 00:10:45;;;;;;;19.20;14.03;;;2.00;82.60;;;;;;5043010;28;20057;-72
2023/12/07 00:13:10;;;;;;;21.97;14.07;;;2.00;82.40;;;;;;5044723;28;20056;-72
2023/12/07 00:15:36;;;;;;;19.30;14.07;;;2.00;82.40;;;;;;5043282;28;20414;-72
2023/12/07 00:18:03;;;;;;;17.97;13.57;;;2.00;82.50;;;;;;5043344;28;20049;-72
2023/12/07 00:20:29;;;;;;;18.97;14.67;;;2.00;82.40;;;;;;5043527;28;20183;-73
2023/12/07 00:22:55;;;;;;;18.83;14.37;;;2.10;82.50;;;;;;5041995;28;20055;-72
2023/12/07 00:25:21;;;;;;;18.73;14.77;;;2.00;82.60;;;;;;5043385;28;20124;-72
2023/12/07 00:27:48;;;;;;;20.87;14.57;;;2.00;82.60;;;;;;5041919;28;20523;-72
2023/12/07 00:30:14;;;;;;;21.57;14.50;;;2.00;82.60;;;;;;5043333;28;20424;-74
2023/12/07 00:32:43;;;;;;;18.57;14.40;;;2.00;82.50;;;;;;5043944;28;20052;-73
2023/12/07 00:35:12;;;;;;;20.17;14.83;;;2.00;82.30;;;;;;5041646;28;20064;-72
2023/12/07 00:37:38;;;;;;;20.00;14.33;;;2.00;82.40;;;;;;5044120;28;20476;-72
2023/12/07 00:40:04;;;;;;;19.77;14.33;;;2.00;82.40;;;;;;5026691;28;20126;-71
2023/12/07 00:42:30;;;;;;;22.93;15.57;;;2.00;82.30;;;;;;5029591;28;20052;-72
2023/12/07 00:44:57;;;;;;;20.13;14.73;;;2.00;82.30;;;;;;5041658;28;20053;-73
2023/12/07 00:47:23;;;;;;;20.87;14.13;;;2.00;82.30;;;;;;5044685;28;20118;-72
2023/12/07 00:49:48;;;;;;;18.87;14.70;;;2.00;82.40;;;;;;5047673;28;20499;-72
2023/12/07 00:52:14;;;;;;;21.13;15.70;;;2.00;82.50;;;;;;5047227;28;20045;-73
2023/12/07 00:54:40;;;;;;;22.07;15.73;;;2.00;82.40;;;;;;5047579;28;20103;-71
2023/12/07 00:57:06;;;;;;;20.70;14.77;;;1.90;82.50;;;;;;5046810;28;20041;-73
2023/12/07 00:59:33;;;;;;;18.97;14.37;;;1.90;82.50;;;;;;5047138;28;20045;-73
2023/12/07 01:02:06;;;;;;;19.87;15.03;;;1.90;82.50;;;;;;5041236;28;20475;-73
2023/12/07 01:04:32;;;;;;;18.07;14.50;;;1.90;82.50;;;;;;5027744;28;20050;-72
2023/12/07 01:06:58;;;;;;;20.43;14.73;;;1.90;82.40;;;;;;5025866;28;20061;-72
2023/12/07 01:09:25;;;;;;;20.70;14.33;;;1.90;82.40;;;;;;5028037;28;20303;-72
2023/12/07 01:11:50;;;;;;;22.40;14.93;;;1.90;82.30;;;;;;5023465;28;20136;-72
2023/12/07 01:14:17;;;;;;;19.47;14.47;;;1.80;82.00;;;;;;5027638;28;20132;-72
2023/12/07 01:16:43;;;;;;;20.67;14.93;;;1.80;82.20;;;;;;5026005;28;20419;-73
2023/12/07 01:19:09;;;;;;;19.23;13.57;;;1.90;82.20;;;;;;5027560;28;20072;-73
2023/12/07 01:21:35;;;;;;;20.40;14.47;;;1.90;82.10;;;;;;5021448;28;20064;-72
2023/12/07 01:24:00;;;;;;;19.53;13.77;;;1.80;82.20;;;;;;5046297;28;20053;-72
2023/12/07 01:26:26;;;;;;;19.23;13.90;;;1.90;82.30;;;;;;5046358;28;20447;-73
2023/12/07 01:28:52;;;;;;;20.27;14.07;;;1.80;82.20;;;;;;5046682;28;20045;-72
2023/12/07 01:31:17;;;;;;;21.23;13.90;;;1.90;82.20;;;;;;5046399;28;20140;-73
2023/12/07 01:33:43;;;;;;;18.97;13.47;;;1.90;82.40;;;;;;5046561;28;20488;-72
2023/12/07 01:36:10;;;;;;;21.70;15.00;;;1.90;82.20;;;;;;5044980;28;20053;-72
2023/12/07 01:38:36;;;;;;;23.17;14.57;;;1.90;82.40;;;;;;5047368;28;20061;-72
2023/12/07 01:41:01;;;;;;;24.87;14.80;;;1.90;82.40;;;;;;5046537;28;20110;-72
2023/12/07 01:43:27;;;;;;;20.47;14.53;;;1.80;82.40;;;;;;5046659;28;20056;-72
2023/12/07 01:45:56;;;;;;;21.17;14.30;;;1.80;82.50;;;;;;5045259;28;20447;-72
2023/12/07 01:48:23;;;;;;;22.77;15.07;;;1.80;82.50;;;;;;5046737;28;20040;-72
2023/12/07 01:50:49;;;;;;;20.57;14.80;;;1.70;82.50;;;;;;5045534;28;20052;-72
2023/12/07 01:53:16;;;;;;;20.53;14.03;;;1.70;82.50;;;;;;5047063;28;20131;-72
2023/12/07 01:55:42;;;;;;;20.27;14.73;;;1.70;82.50;;;;;;5042996;28;20072;-74
2023/12/07 01:58:08;;;;;;;20.80;14.20;;;1.70;82.70;;;;;;5044624;28;20112;-72
2023/12/07 02:00:34;;;;;;;23.47;15.10;;;1.70;82.50;;;;;;5044675;28;20126;-73
2023/12/07 02:03:04;;;;;;;21.17;14.43;;;1.70;82.40;;;;;;5044497;28;20049;-73
2023/12/07 02:05:31;;;;;;;20.53;14.87;;;1.70;82.60;;;;;;5043621;28;20138;-72
2023/12/07 02:07:57;;;;;;;21.00;15.00;;;1.60;82.40;;;;;;5027467;28;20052;-73
2023/12/07 02:10:23;;;;;;;24.10;14.97;;;1.60;82.50;;;;;;5044752;28;20056;-73
2023/12/07 02:12:49;;;;;;;19.47;14.43;;;1.60;82.50;;;;;;5044778;28;20084;-73
2023/12/07 02:15:15;;;;;;;21.10;14.13;;;1.60;82.60;;;;;;5043602;28;20092;-74
2023/12/07 02:18:01;;;;;;;19.53;14.83;;;1.60;82.60;;;;;;5045908;28;20044;-72
2023/12/07 02:20:38;;;;;;;18.97;14.13;;;1.60;82.60;;;;;;5045679;28;20051;-74
2023/12/07 02:23:06;;;;;;;18.50;14.07;;;1.60;82.70;;;;;;5034164;28;20042;-73
2023/12/07 02:25:46;;;;;;;20.77;14.80;;;1.60;82.70;;;;;;5025231;28;20053;-73
2023/12/07 02:28:12;;;;;;;22.47;14.53;;;1.60;82.90;;;;;;5038054;28;20045;-74
2023/12/07 02:30:38;;;;;;;21.50;15.10;;;1.60;82.80;;;;;;5044940;28;20041;-73
2023/12/07 02:33:04;;;;;;;19.30;14.43;;;1.60;82.80;;;;;;5046336;28;20060;-72
2023/12/07 02:35:31;;;;;;;19.00;15.03;;;1.60;82.70;;;;;;5043164;28;20496;-73
2023/12/07 02:37:57;;;;;;;21.27;14.33;;;1.60;82.80;;;;;;5044119;28;20769;-73
2023/12/07 02:40:28;;;;;;;21.73;14.20;;;1.60;82.70;;;;;;5045920;28;20094;-73
2023/12/07 02:42:54;;;;;;;22.63;13.23;;;1.60;82.60;;;;;;5045594;28;20067;-72
2023/12/07 02:45:21;;;;;;;19.73;13.10;;;1.50;82.60;;;;;;5045442;28;20056;-74
2023/12/07 02:47:47;;;;;;;21.10;14.10;;;1.60;82.40;;;;;;5043737;28;20052;-74
2023/12/07 02:50:13;;;;;;;20.53;13.50;;;1.60;82.40;;;;;;5045059;28;20099;-74
2023/12/07 02:52:39;;;;;;;22.70;12.77;;;1.60;82.60;;;;;;5045847;28;20436;-74
2023/12/07 02:55:05;;;;;;;17.00;12.37;;;1.60;82.60;;;;;;5044293;28;20103;-72
2023/12/07 02:57:33;;;;;;;18.73;13.50;;;1.60;82.60;;;;;;5044327;28;20049;-72
2023/12/07 02:59:59;;;;;;;19.07;12.83;;;1.60;82.60;;;;;;5044918;28;20124;-73
2023/12/07 03:02:25;;;;;;;20.00;12.87;;;1.50;82.70;;;;;;5045551;28;20124;-74
2023/12/07 03:04:51;;;;;;;16.37;12.73;;;1.50;82.70;;;;;;5044914;28;20408;-72
2023/12/07 03:07:17;;;;;;;20.20;13.33;;;1.50;82.70;;;;;;5044691;28;20067;-73
2023/12/07 03:09:42;;;;;;;22.83;14.03;;;1.50;82.80;;;;;;5044616;28;20122;-74
2023/12/07 03:12:08;;;;;;;17.40;12.73;;;1.50;82.80;;;;;;5044027;28;20130;-74
2023/12/07 03:14:34;;;;;;;19.00;12.77;;;1.50;82.80;;;;;;5044939;28;20076;-73
2023/12/07 03:17:00;;;;;;;20.23;13.33;;;1.50;82.90;;;;;;5043754;28;20663;-74
2023/12/07 03:19:25;;;;;;;21.30;13.67;;;1.50;82.80;;;;;;5044609;28;20136;-73
2023/12/07 03:21:51;;;;;;;21.40;13.43;;;1.50;82.90;;;;;;5044214;28;20187;-72
2023/12/07 03:24:17;;;;;;;18.33;12.90;;;1.60;82.90;;;;;;5044832;28;20128;-75
2023/12/07 03:26:42;;;;;;;18.30;13.00;;;1.50;82.90;;;;;;5043750;28;20187;-73
2023/12/07 03:29:08;;;;;;;21.17;13.27;;;1.60;82.80;;;;;;5045933;28;20082;-72
2023/12/07 03:31:34;;;;;;;17.63;13.03;;;1.60;82.80;;;;;;5045898;28;20053;-73
2023/12/07 03:34:01;;;;;;;19.47;12.90;;;1.60;82.80;;;;;;5045831;28;20059;-72
2023/12/07 03:36:27;;;;;;;20.00;13.37;;;1.60;82.90;;;;;;5045328;28;20044;-72
2023/12/07 03:38:53;;;;;;;21.53;13.40;;;1.60;82.90;;;;;;5045731;28;20053;-71
2023/12/07 03:41:18;;;;;;;15.80;12.33;;;1.60;82.80;;;;;;5045020;28;20396;-72
2023/12/07 03:43:44;;;;;;;18.80;12.70;;;1.60;82.80;;;;;;5045575;28;20052;-72
2023/12/07 03:46:10;;;;;;;17.63;12.93;;;1.60;82.70;;;;;;5044924;28;20067;-72
2023/12/07 03:48:36;;;;;;;15.70;13.20;;;1.60;82.70;;;;;;5045268;28;20088;-74
2023/12/07 03:51:02;;;;;;;18.57;12.90;;;1.60;82.60;;;;;;5044349;28;20104;-72
2023/12/07 03:53:28;;;;;;;19.13;12.63;;;1.60;82.60;;;;;;5045892;28;20428;-72
2023/12/07 03:55:55;;;;;;;19.63;13.13;;;1.70;82.50;;;;;;5044939;28;20041;-72
2023/12/07 03:58:21;;;;;;;20.13;12.87;;;1.60;82.50;;;;;;5046365;28;20400;-72
2023/12/07 04:00:46;;;;;;;17.37;12.87;;;1.60;82.40;;;;;;5043840;28;20052;-68
2023/12/07 04:03:12;;;;;;;18.67;12.67;;;1.60;82.40;;;;;;5044432;28;20049;-73
2023/12/07 04:05:38;;;;;;;17.43;11.80;;;1.50;82.50;;;;;;5043486;28;20064;-73
2023/12/07 04:08:05;;;;;;;19.73;12.30;;;1.50;82.50;;;;;;5044636;28;20061;-72
2023/12/07 04:10:31;;;;;;;18.40;13.27;;;1.40;82.50;;;;;;5045173;28;20064;-72
2023/12/07 04:12:57;;;;;;;18.03;12.57;;;1.40;82.60;;;;;;5044818;28;20084;-72
2023/12/07 04:15:22;;;;;;;17.27;11.90;;;1.40;82.60;;;;;;5042856;28;20493;-73
2023/12/07 04:17:49;;;;;;;17.90;12.27;;;1.40;82.60;;;;;;5043981;28;20048;-72
2023/12/07 04:20:14;;;;;;;18.40;12.00;;;1.40;82.70;;;;;;5043366;28;20219;-72
2023/12/07 04:22:41;;;;;;;20.80;12.40;;;1.40;82.70;;;;;;5043820;28;20059;-73
2023/12/07 04:25:07;;;;;;;17.90;12.67;;;1.30;82.70;;;;;;5041955;28;20049;-72
2023/12/07 04:27:34;;;;;;;19.53;12.67;;;1.30;82.70;;;;;;5041467;28;20404;-73
2023/12/07 04:29:59;;;;;;;16.20;11.60;;;1.30;82.70;;;;;;5042845;28;20126;-68
2023/12/07 04:32:25;;;;;;;18.10;11.80;;;1.20;82.70;;;;;;5039770;28;20564;-72
2023/12/07 04:34:51;;;;;;;20.80;12.47;;;1.20;82.80;;;;;;5031117;28;20108;-73
2023/12/07 04:37:17;;;;;;;18.03;12.43;;;1.20;82.90;;;;;;5032743;28;20515;-72
2023/12/07 04:39:43;;;;;;;16.33;12.10;;;1.20;82.80;;;;;;5036036;28;20048;-72
2023/12/07 04:42:09;;;;;;;18.23;11.60;;;1.20;82.90;;;;;;5024772;28;20064;-72
2023/12/07 04:44:34;;;;;;;16.73;11.53;;;1.20;82.80;;;;;;5023990;28;20170;-72
2023/12/07 04:47:00;;;;;;;18.47;12.47;;;1.20;82.80;;;;;;5022180;28;20057;-70
2023/12/07 04:49:26;;;;;;;19.10;12.17;;;1.20;82.80;;;;;;5023788;28;20429;-73
2023/12/07 04:51:51;;;;;;;19.37;11.80;;;1.10;82.90;;;;;;5023585;28;20052;-72
2023/12/07 04:54:17;;;;;;;18.63;12.70;;;1.20;82.90;;;;;;5023268;28;20049;-72
2023/12/07 04:56:43;;;;;;;17.77;11.77;;;1.10;82.90;;;;;;5037012;28;20535;-72
2023/12/07 04:59:12;;;;;;;19.90;12.43;;;1.10;82.90;;;;;;5042034;28;20499;-72
2023/12/07 05:01:37;;;;;;;20.03;12.73;;;1.10;82.90;;;;;;5043311;28;20310;-72
2023/12/07 05:04:04;;;;;;;19.47;13.40;;;1.00;82.80;;;;;;5043190;28;20543;-72
2023/12/07 05:06:34;;;;;;;20.50;12.90;;;1.00;82.90;;;;;;5040670;28;20053;-72
2023/12/07 05:09:00;;;;;;;18.50;12.83;;;1.00;83.00;;;;;;5042811;28;20053;-74
2023/12/07 05:11:26;;;;;;;20.67;12.90;;;1.00;83.00;;;;;;5040797;28;20514;-73
2023/12/07 05:13:52;;;;;;;20.17;14.07;;;1.00;83.00;;;;;;5035264;28;20049;-72
2023/12/07 05:16:17;;;;;;;20.97;13.97;;;1.00;83.10;;;;;;5039350;28;20492;-72
2023/12/07 05:18:44;;;;;;;19.07;13.50;;;1.00;83.10;;;;;;5040921;28;20522;-72
2023/12/07 05:21:10;;;;;;;20.73;14.00;;;1.00;83.10;;;;;;5039554;28;20061;-72
2023/12/07 05:23:35;;;;;;;24.43;15.37;;;1.00;83.20;;;;;;5041021;28;20504;-73
2023/12/07 05:26:01;;;;;;;22.67;15.90;;;1.00;83.20;;;;;;5039983;28;20118;-73
2023/12/07 05:28:26;;;;;;;29.53;26.33;;;0.90;83.20;;;;;;5038873;28;20130;-73
2023/12/07 05:30:52;;;;;;;24.27;16.20;;;0.90;83.10;;;;;;5038459;28;20337;-72
2023/12/07 05:33:21;;;;;;;27.67;15.73;;;0.80;83.20;;;;;;5042354;28;20140;-73
2023/12/07 05:35:47;;;;;;;24.57;16.13;;;0.80;83.20;;;;;;5042025;28;20557;-73
2023/12/07 05:38:12;;;;;;;24.43;15.77;;;0.80;83.20;;;;;;5044104;28;20287;-74
2023/12/07 05:40:38;;;;;;;23.00;16.03;;;0.80;83.20;;;;;;5044226;28;20094;-73
2023/12/07 05:43:04;;;;;;;25.97;15.67;;;0.80;83.20;;;;;;5042181;28;20049;-73
2023/12/07 05:45:33;;;;;;;23.83;15.43;;;0.70;83.20;;;;;;5043689;28;20605;-72
2023/12/07 05:47:58;;;;;;;27.17;17.17;;;0.70;83.40;;;;;;5042977;28;20109;-73
2023/12/07 05:50:24;;;;;;;23.93;16.90;;;0.60;83.40;;;;;;5043257;28;20048;-74
2023/12/07 05:52:49;;;;;;;29.40;17.43;;;0.70;83.50;;;;;;5045547;28;20049;-74
2023/12/07 05:55:15;;;;;;;25.87;17.07;;;0.60;83.60;;;;;;5045201;28;20140;-73
2023/12/07 05:57:41;;;;;;;28.23;19.33;;;0.70;83.60;;;;;;5044908;28;20484;-72
2023/12/07 06:00:09;;;;;;;31.40;19.30;;;0.60;83.70;;;;;;5045624;28;20048;-72
2023/12/07 06:02:35;;;;;;;31.77;19.37;;;0.60;83.70;;;;;;5046818;28;20057;-74
2023/12/07 06:05:04;;;;;;;29.07;19.33;;;0.60;83.70;;;;;;5045305;28;20053;-72
2023/12/07 06:07:30;;;;;;;33.77;19.77;;;0.60;83.70;;;;;;5046313;28;20049;-72
2023/12/07 06:09:56;;;;;;;30.50;20.83;;;0.60;83.80;;;;;;5044654;28;20051;-72
2023/12/07 06:12:22;;;;;;;33.97;20.23;;;0.60;83.90;;;;;;5045299;28;20067;-71
2023/12/07 06:14:50;;;;;;;29.87;20.73;;;0.60;83.90;;;;;;5046987;28;20057;-74
2023/12/07 06:17:16;;;;;;;33.00;20.53;;;0.60;84.00;;;;;;5046304;28;20053;-72
2023/12/07 06:19:42;;;;;;;32.13;20.83;;;0.60;84.10;;;;;;5045110;28;20076;-72
2023/12/07 06:22:08;;;;;;;34.77;20.50;;;0.60;84.00;;;;;;5043374;28;20500;-71
2023/12/07 06:24:35;;;;;;;30.13;21.33;;;0.70;84.10;;;;;;5045638;28;20056;-71
2023/12/07 06:27:02;;;;;;;30.57;19.80;;;0.70;84.10;;;;;;5044780;28;20053;-72
2023/12/07 06:29:29;;;;;;;31.37;24.70;;;0.70;84.20;;;;;;5046855;28;20053;-72
2023/12/07 06:31:55;;;;;;;32.87;20.77;;;0.80;84.30;;;;;;5045616;28;20064;-72
2023/12/07 06:34:21;;;;;;;31.10;20.73;;;0.80;84.20;;;;;;5045853;28;20452;-73
2023/12/07 06:36:47;;;;;;;34.37;20.40;;;0.80;84.30;;;;;;5045072;28;20057;-72
2023/12/07 06:39:14;;;;;;;32.47;20.73;;;0.80;84.20;;;;;;5044572;28;20128;-72
2023/12/07 06:41:39;;;;;;;36.17;21.57;;;0.80;84.30;;;;;;5042440;28;20068;-72
2023/12/07 06:44:06;;;;;;;33.67;21.17;;;0.80;84.20;;;;;;5044896;28;20061;-73
2023/12/07 06:46:32;;;;;;;32.00;21.67;;;0.80;84.30;;;;;;5044873;28;20052;-72
2023/12/07 06:48:57;;;;;;;34.47;23.13;;;0.80;84.20;;;;;;5045552;28;20055;-72
2023/12/07 06:51:23;;;;;;;33.33;23.33;;;0.90;84.20;;;;;;5044856;28;20041;-72
2023/12/07 06:53:49;;;;;;;34.10;20.87;;;0.90;84.20;;;;;;5045237;28;20069;-72
2023/12/07 06:56:15;;;;;;;35.00;19.93;;;0.90;84.20;;;;;;5043017;28;20161;-72
2023/12/07 06:58:41;;;;;;;30.10;19.70;;;0.90;84.20;;;;;;5047818;28;20437;-72
2023/12/07 07:01:06;;;;;;;30.93;20.07;;;0.80;84.10;;;;;;5040282;28;20564;-72
2023/12/07 07:03:32;;;;;;;28.80;19.77;;;0.90;84.10;;;;;;5045359;28;20138;-72
2023/12/07 07:05:59;;;;;;;30.33;19.33;;;0.80;84.10;;;;;;5042203;28;20072;-72
2023/12/07 07:08:25;;;;;;;27.47;19.30;;;0.90;84.10;;;;;;5037547;28;20049;-73
2023/12/07 07:10:51;;;;;;;30.77;19.77;;;0.90;84.10;;;;;;5035722;28;20053;-73
2023/12/07 07:13:19;;;;;;;30.50;20.23;;;0.90;84.20;;;;;;5043775;28;20049;-74
2023/12/07 07:15:45;;;;;;;32.80;19.57;;;0.90;84.20;;;;;;5043699;28;20052;-74
2023/12/07 07:18:10;;;;;;;29.63;19.20;;;1.00;84.20;;;;;;5043931;28;20053;-73
2023/12/07 07:20:36;;;;;;;30.07;18.07;;;0.90;84.20;;;;;;5043638;28;20051;-72
2023/12/07 07:23:02;;;;;;;33.87;20.57;;;0.90;84.20;;;;;;5040332;28;20496;-72
2023/12/07 07:25:27;;;;;;;30.20;20.93;;;0.90;84.30;;;;;;5042833;28;20057;-72
2023/12/07 07:27:54;;;;;;;28.60;19.70;;;0.90;84.20;;;;;;5042626;28;20122;-72
2023/12/07 07:30:20;;;;;;;56.23;51.03;;;1.00;84.20;;;;;;5042956;28;20131;-73
2023/12/07 07:32:46;;;;;;;28.73;19.20;;;0.90;84.20;;;;;;5041995;28;20057;-73
2023/12/07 07:35:12;;;;;;;33.37;20.57;;;1.00;84.30;;;;;;5042757;28;20057;-72
2023/12/07 07:37:41;;;;;;;30.70;20.67;;;0.90;84.40;;;;;;5043304;28;20462;-72
2023/12/07 07:40:11;;;;;;;37.43;22.30;;;1.00;84.30;;;;;;5041563;28;20067;-73
2023/12/07 07:42:39;;;;;;;34.67;22.60;;;0.90;84.40;;;;;;5041521;28;20516;-73
2023/12/07 07:45:09;;;;;;;33.73;21.97;;;1.00;84.40;;;;;;5014817;28;20579;-74
2023/12/07 07:47:35;;;;;;;35.57;23.27;;;1.00;84.40;;;;;;5003407;28;20053;-73
2023/12/07 07:50:05;;;;;;;32.60;21.90;;;1.00;84.30;;;;;;4984853;28;20057;-73
2023/12/07 07:52:35;;;;;;;31.13;22.30;;;1.00;84.40;;;;;;5002681;28;20091;-73
2023/12/07 07:55:03;;;;;;;31.03;23.23;;;1.00;84.40;;;;;;4986756;28;20069;-72
2023/12/07 07:57:29;;;;;;;34.80;22.67;;;1.00;84.40;;;;;;5010189;28;20045;-72
2023/12/07 07:59:55;;;;;;;35.53;23.30;;;1.00;84.40;;;;;;5012756;28;20049;-72
2023/12/07 08:02:21;;;;;;;35.87;23.73;;;1.00;84.40;;;;;;5006129;28;20476;-71
2023/12/07 08:04:47;;;;;;;29.27;20.30;;;1.00;84.40;;;;;;5003743;28;20053;-72
2023/12/07 08:07:13;;;;;;;30.07;20.63;;;1.00;84.40;;;;;;5003680;28;20068;-71
2023/12/07 08:09:39;;;;;;;30.60;20.57;;;1.00;84.40;;;;;;5005004;28;20057;-71
2023/12/07 08:12:06;;;;;;;30.47;22.20;;;1.00;84.30;;;;;;4986493;28;20049;-71
2023/12/07 08:14:32;;;;;;;30.47;21.43;;;1.10;84.40;;;;;;5009556;28;20157;-71
2023/12/07 08:16:58;;;;;;;33.77;22.33;;;1.10;84.40;;;;;;5007226;28;20053;-71
2023/12/07 08:19:23;;;;;;;32.17;21.33;;;1.10;84.40;;;;;;5007078;28;20072;-71
2023/12/07 08:21:50;;;;;;;35.67;21.43;;;1.20;84.30;;;;;;5008118;28;20049;-72
2023/12/07 08:24:16;;;;;;;29.43;20.40;;;1.40;84.40;;;;;;5005969;28;20132;-71
2023/12/07 08:26:42;;;;;;;28.27;20.47;;;1.40;84.30;;;;;;5005396;28;20065;-73
2023/12/07 08:29:08;;;;;;;33.37;22.23;;;1.40;84.30;;;;;;5002323;28;20155;-71
2023/12/07 08:31:33;;;;;;;30.73;20.70;;;1.40;84.30;;;;;;5007690;28;20054;-72
2023/12/07 08:34:00;;;;;;;28.67;20.73;;;1.40;84.30;;;;;;5006873;28;20122;-72
2023/12/07 08:36:26;;;;;;;29.73;21.50;;;1.40;84.30;;;;;;5015607;28;20080;-72
2023/12/07 08:38:52;;;;;;;32.93;21.80;;;1.50;84.30;;;;;;5008291;28;20684;-72
2023/12/07 08:41:18;;;;;;;33.00;22.60;;;1.70;84.50;;;;;;5004903;28;20079;-73
2023/12/07 08:43:44;;;;;;;32.00;23.37;;;2.00;84.50;;;;;;5005678;28;20045;-72
2023/12/07 08:46:10;;;;;;;30.23;22.40;;;2.20;84.40;;;;;;5002114;28;20065;-73
2023/12/07 08:48:38;;;;;;;31.20;21.50;;;2.30;84.00;;;;;;5004784;28;20061;-73
2023/12/07 08:51:04;;;;;;;30.97;21.93;;;2.30;83.70;;;;;;5006430;28;20615;-72
2023/12/07 08:53:30;;;;;;;34.77;22.60;;;2.10;83.50;;;;;;5006560;28;20053;-73
2023/12/07 08:55:55;;;;;;;31.30;22.77;;;2.00;83.30;;;;;;5006959;28;20057;-73
2023/12/07 08:58:21;;;;;;;32.07;22.83;;;1.90;83.50;;;;;;5008256;28;20053;-73
2023/12/07 09:00:47;;;;;;;34.87;23.93;;;1.80;83.60;;;;;;5012737;28;20044;-71
2023/12/07 09:03:13;;;;;;;35.50;23.63;;;1.80;83.40;;;;;;5008550;28;20128;-73
2023/12/07 09:05:39;;;;;;;34.30;23.07;;;1.80;83.50;;;;;;5006224;28;20076;-73
2023/12/07 09:08:04;;;;;;;38.27;24.90;;;1.70;83.50;;;;;;5004248;28;20053;-73
2023/12/07 09:10:30;;;;;;;34.13;25.33;;;1.70;83.50;;;;;;4988343;28;20143;-73
2023/12/07 09:12:56;;;;;;;35.70;23.80;;;1.70;83.10;;;;;;5007253;28;20648;-71
2023/12/07 09:15:22;;;;;;;32.03;23.37;;;1.60;83.00;;;;;;5007443;28;20496;-70
2023/12/07 09:17:50;;;;;;;33.20;23.87;;;1.60;82.80;;;;;;5007897;28;20064;-73
2023/12/07 09:20:16;;;;;;;34.87;24.27;;;1.50;82.80;;;;;;4993204;28;20368;-72
2023/12/07 09:22:46;;;;;;;40.93;25.77;;;1.40;82.70;;;;;;5000953;28;20187;-71
2023/12/07 09:25:12;;;;;;;36.93;25.37;;;1.40;82.70;;;;;;5006709;28;20049;-70
2023/12/07 09:27:39;;;;;;;39.63;27.23;;;1.40;83.00;;;;;;4988714;28;20999;-71
2023/12/07 09:30:07;;;;;;;40.83;28.27;;;1.40;82.90;;;;;;5007143;28;20049;-71
2023/12/07 09:32:37;;;;;;;46.90;31.23;;;1.40;83.20;;;;;;5006610;28;20858;-72
2023/12/07 09:35:06;;;;;;;37.08;25.23;;;1.50;83.10;;;;;;5007868;28;20447;-72
2023/12/07 09:37:32;;;;;;;53.63;34.57;;;1.60;83.00;;;;;;5008268;28;20084;-72
2023/12/07 09:39:58;;;;;;;54.43;33.83;;;1.70;83.00;;;;;;5009206;28;20156;-71
2023/12/07 09:42:24;;;;;;;50.93;35.60;;;1.80;82.80;;;;;;5006881;28;21334;-72
2023/12/07 09:44:50;;;;;;;51.70;34.27;;;1.90;82.70;;;;;;4991493;28;20061;-72
2023/12/07 09:47:16;;;;;;;48.23;33.17;;;1.90;82.70;;;;;;5007011;28;20049;-73
2023/12/07 09:49:42;;;;;;;51.43;32.23;;;1.90;82.70;;;;;;5010189;28;20397;-72
2023/12/07 09:52:10;;;;;;;49.53;32.93;;;2.00;82.60;;;;;;4991763;28;20088;-73
2023/12/07 09:54:40;;;;;;;49.27;33.63;;;2.10;82.70;;;;;;5007243;28;20172;-71
2023/12/07 09:57:06;;;;;;;50.60;31.93;;;2.20;82.30;;;;;;5008340;28;20050;-71
2023/12/07 09:59:31;;;;;;;49.07;32.23;;;2.40;82.10;;;;;;5004900;28;20131;-72
2023/12/07 10:01:57;;;;;;;45.47;31.90;;;2.50;82.00;;;;;;5006727;28;20057;-71
2023/12/07 10:04:25;;;;;;;43.37;30.37;;;2.60;81.50;;;;;;4989148;28;20049;-72
2023/12/07 10:06:52;;;;;;;46.13;29.93;;;2.60;81.20;;;;;;5008363;28;21070;-71
2023/12/07 10:09:21;;;;;;;44.07;29.33;;;2.80;81.50;;;;;;5006534;28;20344;-72
2023/12/07 10:11:47;;;;;;;41.83;28.70;;;3.10;81.20;;;;;;5009019;28;20455;-71
2023/12/07 10:14:13;;;;;;;39.50;27.80;;;3.50;80.50;;;;;;5010944;28;20065;-71
2023/12/07 10:16:53;;;;;;;38.90;26.63;;;3.80;79.80;;;;;;5008034;28;20451;-73
2023/12/07 10:19:21;;;;;;;34.27;25.50;;;4.00;79.10;;;;;;5006834;28;20254;-72
2023/12/07 10:21:51;;;;;;;38.43;26.27;;;4.30;78.80;;;;;;5008365;28;20595;-73
2023/12/07 10:24:18;;;;;;;38.40;25.83;;;4.40;78.40;;;;;;5008604;28;20057;-72
2023/12/07 10:26:45;;;;;;;37.23;24.33;;;4.60;78.30;;;;;;5010262;28;20057;-71
2023/12/07 10:29:11;;;;;;;36.23;23.77;;;5.00;77.80;;;;;;5009231;28;20085;-72
2023/12/07 10:31:37;;;;;;;29.80;22.33;;;5.30;77.40;;;;;;5008562;28;20545;-72
2023/12/07 10:34:04;;;;;;;28.63;21.80;;;5.30;76.80;;;;;;5009944;28;20060;-71
2023/12/07 10:36:30;;;;;;;34.90;24.77;;;5.10;76.80;;;;;;5008394;28;20096;-72
2023/12/07 10:38:55;;;;;;;27.20;20.40;;;5.00;76.50;;;;;;5010485;28;20145;-72
2023/12/07 10:41:23;;;;;;;26.10;20.37;;;5.00;75.60;;;;;;5007820;28;20605;-71
2023/12/07 10:43:57;;;;;;;29.47;23.57;;;5.00;75.90;;;;;;5007613;28;20049;-72
2023/12/07 10:46:23;;;;;;;35.00;26.00;;;4.80;76.40;;;;;;4987970;28;20500;-72
2023/12/07 10:48:54;;;;;;;29.13;23.03;;;4.70;76.40;;;;;;5008558;28;20056;-72
2023/12/07 10:51:41;;;;;;;27.27;22.75;;;4.90;76.20;;;;;;5013935;28;20656;-72
2023/12/07 10:54:08;;;;;;;26.20;21.63;;;5.50;75.90;;;;;;5006561;28;20652;-72
2023/12/07 10:56:42;;;;;;;30.37;22.80;;;6.00;74.80;;;;;;5007035;28;20081;-73
2023/12/07 10:59:13;;;;;;;29.03;20.87;;;6.80;74.70;;;;;;5008042;28;20140;-72
2023/12/07 11:01:43;;;;;;;25.47;19.77;;;7.60;72.50;;;;;;5006932;28;20387;-73
2023/12/07 11:04:13;;;;;;;23.47;19.43;;;8.10;70.90;;;;;;5006681;28;20144;-72
2023/12/07 11:06:41;;;;;;;25.87;19.40;;;8.60;70.40;;;;;;5006712;28;20144;-73
2023/12/07 11:09:10;;;;;;;28.07;20.60;;;8.50;69.80;;;;;;5007774;28;20060;-73
2023/12/07 11:11:54;;;;;;;28.57;20.20;;;8.10;70.40;;;;;;5007568;28;20046;-72
2023/12/07 11:14:20;;;;;;;24.33;17.10;;;8.10;72.30;;;;;;5005733;28;20515;-72
2023/12/07 11:16:47;;;;;;;26.60;21.23;;;8.60;71.30;;;;;;5006764;28;20068;-73
2023/12/07 11:19:32;;;;;;;23.83;17.37;;;9.00;69.80;;;;;;5006126;28;20065;-73
2023/12/07 11:22:05;;;;;;;24.93;18.00;;;9.10;67.10;;;;;;5007717;28;20072;-73
2023/12/07 11:24:31;;;;;;;22.07;17.27;;;9.20;69.80;;;;;;5015611;28;20131;-73
2023/12/07 11:26:58;;;;;;;20.67;16.53;;;9.40;68.80;;;;;;5006069;28;20667;-73
2023/12/07 11:29:31;;;;;;;24.43;18.23;;;9.40;68.60;;;;;;5006089;28;20053;-73
2023/12/07 11:32:00;;;;;;;19.93;15.53;;;9.20;67.80;;;;;;5006474;28;20062;-73
2023/12/07 11:34:41;;;;;;;22.17;16.60;;;8.70;67.80;;;;;;5006462;28;20284;-73
2023/12/07 11:37:09;;;;;;;22.67;15.32;;;8.40;69.10;;;;;;5003740;28;20665;-73
2023/12/07 11:39:36;;;;;;;20.07;15.30;;;7.80;68.60;;;;;;5004264;28;20111;-73
2023/12/07 11:42:17;;;;;;;20.27;16.10;;;7.40;69.50;;;;;;5006142;28;20045;-73
2023/12/07 11:44:47;;;;;;;28.00;21.35;;;7.00;70.40;;;;;;5018972;28;20624;-74
2023/12/07 11:47:17;;;;;;;26.47;19.70;;;6.60;70.20;;;;;;5014633;28;20049;-73
2023/12/07 11:49:43;;;;;;;27.10;20.60;;;6.30;71.10;;;;;;5013213;28;20056;-74
2023/12/07 11:52:19;;;;;;;27.63;20.23;;;6.10;71.40;;;;;;5004745;28;20127;-73
2023/12/07 11:54:49;;;;;;;26.40;20.43;;;5.80;71.90;;;;;;5020520;28;20052;-73
2023/12/07 11:57:16;;;;;;;29.70;20.73;;;5.40;72.50;;;;;;5026738;28;20061;-73
2023/12/07 11:59:47;;;;;;;30.87;22.00;;;5.10;73.20;;;;;;5026357;28;20044;-73
2023/12/07 12:02:13;;;;;;;34.80;24.08;;;5.30;74.10;;;;;;5027690;28;20053;-74
2023/12/07 12:04:40;;;;;;;32.50;23.27;;;5.30;73.90;;;;;;5026402;28;20517;-74
2023/12/07 12:07:06;;;;;;;31.50;23.60;;;5.10;73.30;;;;;;5025118;28;20049;-72
2023/12/07 12:09:34;;;;;;;32.63;24.83;;;5.00;73.70;;;;;;5006197;28;20112;-74
2023/12/07 12:12:00;;;;;;;35.67;25.10;;;5.10;73.90;;;;;;5003706;28;20053;-74
2023/12/07 12:14:27;;;;;;;39.23;28.20;;;5.00;73.90;;;;;;5001696;28;20095;-74
2023/12/07 12:16:53;;;;;;;31.30;23.87;;;4.90;74.20;;;;;;5000644;28;20057;-74
2023/12/07 12:19:20;;;;;;;32.63;23.97;;;4.90;74.80;;;;;;5002103;28;20115;-74
2023/12/07 12:21:46;;;;;;;31.93;23.97;;;4.90;75.00;;;;;;5024176;28;20122;-74
2023/12/07 12:24:12;;;;;;;34.33;24.77;;;4.90;75.00;;;;;;5012024;28;20501;-73
2023/12/07 12:26:44;;;;;;;34.80;23.47;;;4.90;75.40;;;;;;5001237;28;20057;-73
2023/12/07 12:29:11;;;;;;;34.10;23.93;;;5.10;75.20;;;;;;5007215;28;20033;-73
2023/12/07 12:31:38;;;;;;;35.17;24.60;;;5.30;74.40;;;;;;5006568;28;20545;-73
2023/12/07 12:34:07;;;;;;;33.73;25.30;;;5.40;74.10;;;;;;5009141;28;20054;-74